createdAt,value
2022-09-12T00:01:32.071Z,15.88
2022-09-12T00:16:34.528Z,15.56
2022-09-12T00:31:36.429Z,15.38
2022-09-12T00:46:55.349Z,15.56
2022-09-12T01:01:56.898Z,14.85
2022-09-12T01:16:58.545Z,15.01
2022-09-12T01:32:18.883Z,14.84
2022-09-12T01:47:39.696Z,14.62
2022-09-12T02:02:47.338Z,14.65
2022-09-12T02:17:50.101Z,14.31
2022-09-12T02:33:02.080Z,14.61
2022-09-12T02:48:19.268Z,14.49
2022-09-12T03:03:23.718Z,14.51
2022-09-12T03:18:46.462Z,14.49
2022-09-12T03:33:48.072Z,14.15
2022-09-12T03:48:50.810Z,14.55
2022-09-12T04:03:52.903Z,14.41
2022-09-12T04:18:54.486Z,15.51
2022-09-12T04:34:00.553Z,17.06
2022-09-12T04:49:02.235Z,19.31
2022-09-12T05:04:03.882Z,18.49
2022-09-12T05:19:05.374Z,18.92
2022-09-12T05:34:07.324Z,19.45
2022-09-12T05:49:10.285Z,19.12
2022-09-12T06:04:12.277Z,20.26
2022-09-12T06:19:15.997Z,18.93
2022-09-12T06:34:17.487Z,20.95
2022-09-12T06:49:19.011Z,22.75
2022-09-12T07:04:20.456Z,20.06
2022-09-12T07:19:22.512Z,22.66
2022-09-12T07:34:23.973Z,21.04
2022-09-12T07:49:25.696Z,21.40
2022-09-12T08:04:27.157Z,21.16
2022-09-12T08:19:28.668Z,22.39
2022-09-12T08:34:30.138Z,23.75
2022-09-12T08:49:37.484Z,20.95
2022-09-12T09:04:48.088Z,22.42
2022-09-12T09:19:51.420Z,22.82
2022-09-12T09:34:52.923Z,23.59
2022-09-12T09:49:54.393Z,23.97
2022-09-12T10:04:57.632Z,21.74
2022-09-12T10:20:19.855Z,22.62
2022-09-12T10:35:25.521Z,24.19
2022-09-12T10:50:29.173Z,24.58
2022-09-12T11:05:37.920Z,24.42
2022-09-12T11:20:58.890Z,23.34
2022-09-12T11:36:02.489Z,21.73
2022-09-12T11:51:07.101Z,21.35
2022-09-12T12:06:20.411Z,21.74
2022-09-12T12:21:31.758Z,21.93
2022-09-12T12:36:38.609Z,23.01
2022-09-12T12:51:44.210Z,21.87
2022-09-12T13:06:54.976Z,21.75
2022-09-12T13:22:03.903Z,21.00
2022-09-12T13:37:27.451Z,20.47
2022-09-12T13:52:30.861Z,19.75
2022-09-12T14:07:33.435Z,19.62
2022-09-12T14:22:35.829Z,19.76
2022-09-12T14:37:37.976Z,18.88
2022-09-12T14:52:40.167Z,19.01
2022-09-12T15:07:42.772Z,18.71
2022-09-12T15:22:44.279Z,18.34
2022-09-12T15:37:45.725Z,18.36
2022-09-12T15:52:47.288Z,18.41
2022-09-12T16:07:50.947Z,18.32
2022-09-12T16:22:52.448Z,18.23
2022-09-12T16:37:53.936Z,18.07
2022-09-12T16:52:55.419Z,17.39
2022-09-12T17:07:56.896Z,17.40
2022-09-12T17:22:58.385Z,17.41
2022-09-12T17:37:59.844Z,17.40
2022-09-12T17:53:01.355Z,17.31
2022-09-12T18:08:02.842Z,17.11
2022-09-12T18:23:04.816Z,16.81
2022-09-12T18:38:06.339Z,16.72
2022-09-12T18:53:07.799Z,16.59
2022-09-12T19:08:09.456Z,16.94
2022-09-12T19:23:11.022Z,16.69
2022-09-12T19:38:13.379Z,16.83
2022-09-12T19:53:15.225Z,16.73
2022-09-12T20:08:16.701Z,16.59
2022-09-12T20:23:18.468Z,16.76
2022-09-12T20:38:19.917Z,16.06
2022-09-12T20:53:21.382Z,16.03
2022-09-12T21:08:22.889Z,15.93
2022-09-12T21:23:25.654Z,15.76
2022-09-12T21:38:27.106Z,15.73
2022-09-12T21:53:28.627Z,15.65
2022-09-12T22:16:08.284Z,15.59
2022-09-12T22:31:10.655Z,15.26
2022-09-12T22:46:12.639Z,15.20
2022-09-12T23:01:14.380Z,14.94
2022-09-12T23:16:18.642Z,15.10
2022-09-12T23:31:20.971Z,15.04
2022-09-12T23:46:22.917Z,14.95
